Flight Track Log - Related Links

Times and Time Zones

All times are in EDT time to prevent confusion due to time zone crossing. See the N1873 flight status page for this flight to view local times or setup timezone preferences in your user account.

Time Position Orientation Groundspeed Altitude Reporting Facility
EDT Latitude Longitude Course Direction KTS MPH feet Rate Location/Type
Tue 01:11:00 PM 37.5768 -86.5120 351° North  Level FlightAware Approximate
Tue 01:11:33 PM 37.1453 -86.4147 354° North 264 304 9,600  Level Indianapolis Center
Tue 01:12:00 PM 37.6815 -86.5329 351° North  Level FlightAware Approximate
Tue 01:12:35 PM 37.2300 -86.4289 352° North 297 342 10,600  Level Indianapolis Center
Tue 01:13:00 PM 37.7863 -86.5539 351° North  Level FlightAware Approximate
Tue 01:13:37 PM 37.3272 -86.4475 351° North 338 389 12,700  Level Indianapolis Center
Tue 01:14:00 PM 37.8908 -86.5769 349° North  Level FlightAware Approximate
Tue 01:14:39 PM 37.4239 -86.4653 352° North 345 397 15,000  Level Indianapolis Center
Tue 01:15:00 PM 37.9953 -86.5991 351° North  Level FlightAware Approximate
Tue 01:15:41 PM 37.5225 -86.4831 352° North 348 400 17,000  Level Indianapolis Center
Tue 01:16:00 PM 38.1007 -86.6144 354° North  Level FlightAware Approximate
Tue 01:16:43 PM 37.6394 -86.5042 352° North 358 412 19,400  Level Indianapolis Center
Tue 01:17:45 PM 37.7428 -86.5250 351° North 366 421 21,400 1,935 Climbing Indianapolis Center
Tue 01:18:47 PM 37.8514 -86.5450 352° North 383 441 23,400 1,935 Climbing Indianapolis Center
Tue 01:19:49 PM 37.9619 -86.5656 352° North 394 453 25,400 1,935 Climbing Indianapolis Center
Tue 01:20:51 PM 38.0756 -86.5864 352° North 407 468 27,400 1,258 Climbing Indianapolis Center
Tue 01:21:53 PM 38.1933 -86.6097 351° North 421 484 28,000 293 Climbing Indianapolis Center
Tue 01:22:54 PM 38.3233 -86.6339 352° North 461 531 28,000  Level Indianapolis Center
Tue 01:23:56 PM 38.4839 -86.6631 352° North 483 556 28,000  Level Indianapolis Center
Tue 01:24:58 PM 38.6150 -86.6892 351° North 483 556 28,000  Level Indianapolis Center
Tue 01:26:00 PM 38.7450 -86.7147 351° North 479 551 28,000  Level Indianapolis Center
Tue 01:27:02 PM 38.8756 -86.7386 352° North 477 549 28,000  Level Indianapolis Center
Tue 01:28:04 PM 39.0044 -86.7631 352° North 472 543 28,000  Level Indianapolis Center
Tue 01:29:06 PM 39.1428 -86.7892 352° North 467 537 28,000  Level Indianapolis Center
Tue 01:30:08 PM 39.2694 -86.8136 352° North 464 534 28,000  Level Indianapolis Center
Tue 01:31:10 PM 39.3964 -86.8386 351° North 463 533 28,000  Level Indianapolis Center
Tue 01:32:12 PM 39.5231 -86.8633 351° North 462 532 28,000  Level Indianapolis Center
Tue 01:33:14 PM 39.6742 -86.8928 351° North 457 526 28,000 -242 Level Indianapolis Center
Tue 01:34:16 PM 39.7997 -86.9175 351° North 457 526 27,500 -726 Descending Indianapolis Center
Tue 01:35:18 PM 39.9244 -86.9408 352° North 454 522 26,500 -1,113 Descending Indianapolis Center
Tue 01:36:20 PM 40.0494 -86.9661 351° North 454 522 25,200 -1,350 Descending Indianapolis Center
Tue 01:37:18 PM 40.1722 -86.9914 351° North 449 517 23,800 -1,550 Descending Chicago Center
Tue 01:38:20 PM 40.2925 -87.0172 351° North 439 505 22,100 -1,887 Descending Chicago Center
Tue 01:39:22 PM 40.4094 -87.0386 352° North 423 487 19,900 -2,081 Descending Chicago Center
Tue 01:40:24 PM 40.5214 -87.0625 351° North 412 474 17,800 -1,887 Descending Chicago Center
Tue 01:41:26 PM 40.6256 -87.0836 351° North 382 440 16,000 -1,742 Descending Chicago Center
Tue 01:42:28 PM 40.7350 -87.1047 352° North 364 419 14,200 -1,694 Descending Chicago Center
Tue 01:43:30 PM 40.8358 -87.1253 351° North 365 420 12,500 -1,694 Descending Chicago Center
Tue 01:44:32 PM 40.9325 -87.1458 351° North 358 412 10,700 -1,500 Descending Chicago Center
Tue 01:45:34 PM 41.0400 -87.1683 351° North 313 360 9,400 -1,210 Descending Chicago Center
Tue 01:46:36 PM 41.1053 -87.1817 351° North 243 280 8,200 -1,306 Descending Chicago Center
Tue 01:47:38 PM 41.1758 -87.1956 352° North 239 275 6,700 -1,355 Descending Chicago Center
Tue 01:48:40 PM 41.2403 -87.2089 351° North 238 274 5,400 -1,306 Descending Chicago Center
Tue 01:49:42 PM 41.3072 -87.2231 351° North 230 265 4,000 -677 Descending Chicago Center
Tue 01:50:44 PM 41.3733 -87.2367 351° North 237 273 4,000  Level Chicago Center
Tue 01:51:46 PM 41.4450 -87.2517 351° North 242 278 4,000  Level Chicago Center
Tue 01:52:48 PM 41.5114 -87.2664 351° North 242 278 4,000  Level Chicago Center
Tue 01:53:50 PM 41.5778 -87.2839 349° North 242 278 4,000 -145 Level Chicago Center
Tue 01:54:52 PM 41.6444 -87.3200 338° Northwest 242 278 3,700 -484 Descending Chicago Center
Tue 01:55:54 PM 41.7050 -87.3525 338° Northwest 239 275 3,000 -339 Descending Chicago Center
Tue 01:56:56 PM 41.7733 -87.3886 338° Northwest 244 281 3,000  Level Chicago Center
Tue 01:57:58 PM 41.8361 -87.4217 339° North 246 283 3,000  Level Chicago Center
Tue 01:59:00 PM 41.9022 -87.4553 339° North 240 276 3,000  Level Chicago Center
Tue 02:00:03 PM 41.9642 -87.4869 339° North 240 276 3,000  Level Chicago Center
Tue 02:01:05 PM 42.0311 -87.5211 339° North 240 276 3,000  Level Chicago Center
Tue 02:02:07 PM 42.0922 -87.5519 339° North 239 275 3,000  Level Chicago Center
Tue 02:03:09 PM 42.1536 -87.6028 328° Northwest 239 275 3,000  Level Chicago Center
Tue 02:04:11 PM 42.2011 -87.6611 318° Northwest 240 276 3,000  Level Chicago Center
Tue 02:05:13 PM 42.2211 -87.7478 287° West 241 277 3,000  Level Chicago Center
Tue 02:06:14 PM 42.2419 -87.8425 287° West 242 278 3,000 -98 Level Chicago Center
Tue 02:07:16 PM 42.2431 -87.9194 271° West 226 260 2,800 -484 Descending Chicago Center
Tue 02:08:18 PM 42.1786 -87.9378 192° South 222 255 2,000 -871 Descending Chicago Center
Tue 02:09:20 PM 42.1386 -87.9172 159° South 165 190 1,000 -968 Descending Chicago Center
Tue 02:11:00 PM 42.1143 -87.9015 169° South  Level Estimated

Login

Don't have an account? Register now (free) for customized features, flight alerts, and more!